Data for 01/28/2015

Time Sea-Level Adjusted Pressure Absolute Pressure Temperature Relative Humidity Dew Point   
(mb) (inHg) (mb) (inHg) (C) (F) (%) (C) (F)
00:05 1017 30.03 846 24.98 6 42.8 54 -2.5 27.5
00:10 1017 30.03 846 24.98 6 42.8 54 -2.5 27.5
00:15 1017 30.03 846 24.98 5.9 42.6 57 -2 28.4
00:20 1017 30.03 847 25.01 5.4 41.7 58 -2.2 28
00:25 1017 30.03 847 25.01 5.3 41.6 58 -2.2 28
00:30 1017 30.03 847 25.01 5.3 41.6 58 -2.2 28.1
00:35 1017 30.03 847 25.01 5.3 41.6 57 -2.6 27.3
00:40 1018 30.06 847 25.01 5.6 42 58 -2 28.4
00:45 1018 30.06 847 25.01 5.5 41.9 55 -2.8 26.9
00:50 1018 30.06 847 25.01 5.9 42.7 56 -2.1 28.1
00:55 1018 30.06 847 25.01 5.7 42.3 55 -2.5 27.5
01:00 1018 30.06 847 25.01 6 42.8 55 -2.4 27.6
01:05 1018 30.06 847 25.01 6.1 43 54 -2.5 27.6
01:10 1018 30.06 847 25.01 6.3 43.3 53 -2.5 27.5
01:15 1018 30.06 847 25.01 6.4 43.4 54 -2.3 27.9
01:20 1018 30.06 847 25.01 6.4 43.6 54 -2.3 27.9
01:25 1018 30.06 847 25.01 6.5 43.8 54 -2.1 28.2
01:30 1018 30.06 847 25.01 6.5 43.8 54 -2 28.4
01:35 1018 30.06 847 25.01 6.4 43.5 54 -2.2 28.1
01:40 1018 30.06 847 25.01 6.3 43.3 55 -2.2 28.1
01:45 1018 30.06 847 25.01 6.5 43.8 54 -2.2 28.1
01:50 1018 30.06 847 25.01 6.5 43.6 55 -1.9 28.6
01:55 1018 30.06 847 25.01 6.2 43.2 56 -1.9 28.6
02:00 1018 30.06 847 25.01 6.1 43.1 56 -1.9 28.6
02:05 1018 30.06 847 25.01 6.2 43.2 56 -1.8 28.7
02:10 1018 30.06 847 25.01 6.2 43.1 57 -1.8 28.7
02:15 1018 30.06 847 25.01 5.9 42.7 59 -1.5 29.3
02:20 1018 30.06 847 25.01 5.7 42.3 59 -1.7 29
02:25 1018 30.06 847 25.01 5.5 42 60 -1.5 29.3
02:30 1018 30.06 847 25.01 5.4 41.7 60 -1.8 28.8
02:35 1018 30.06 847 25.01 5.6 42.1 59 -1.7 29
02:40 1018 30.06 847 25.01 5.5 41.8 60 -1.7 28.9
02:45 1018 30.06 847 25.01 5.4 41.7 60 -1.7 28.9
02:50 1018 30.06 847 25.01 5.2 41.4 61 -1.8 28.8
02:55 1018 30.06 847 25.01 5.2 41.3 60 -1.9 28.6
03:00 1018 30.06 847 25.01 5.3 41.5 59 -2 28.5
03:05 1018 30.06 847 25.01 5.4 41.7 60 -1.8 28.8
03:10 1018 30.06 847 25.01 5.2 41.4 62 -1.4 29.4
03:15 1018 30.06 848 25.04 4.9 40.8 63 -1.6 29.1
03:20 1018 30.06 848 25.04 4.8 40.6 64 -1.5 29.2
03:25 1018 30.06 848 25.04 4.8 40.6 63 -1.6 29.2
03:30 1018 30.06 848 25.04 4.9 40.9 63 -1.5 29.3
03:35 1018 30.06 848 25.04 5.3 41.6 61 -1.6 29.1
03:40 1018 30.06 848 25.04 5.3 41.6 62 -1.4 29.5
03:45 1019 30.09 848 25.04 5.4 41.8 64 -0.8 30.6
03:50 1019 30.09 848 25.04 5.5 42 64 -0.7 30.7
03:55 1019 30.09 848 25.04 5.6 42 62 -1.1 30
04:00 1019 30.09 848 25.04 5.4 41.7 63 -1 30.3
04:05 1019 30.09 848 25.04 5.3 41.5 65 -0.8 30.5
04:10 1019 30.09 848 25.04 5.2 41.3 66 -0.7 30.8
04:15 1019 30.09 848 25.04 5.1 41.2 67 -0.5 31.2
04:20 1019 30.09 848 25.04 5.2 41.4 67 -0.5 31.2
04:25 1019 30.09 848 25.04 5.4 41.7 67 -0.3 31.4
04:30 1019 30.09 848 25.04 5.4 41.7 67 -0.2 31.6
04:35 1019 30.09 848 25.04 5.3 41.5 68 -0.2 31.7
04:40 1019 30.09 848 25.04 5.1 41.2 69 -0.1 31.8
04:45 1019 30.09 848 25.04 5 41 69 -0.1 31.8
04:50 1019 30.09 848 25.04 4.9 40.9 71 0.1 32.2
04:55 1019 30.09 848 25.04 4.8 40.7 72 0.1 32.3
05:00 1019 30.09 849 25.07 4.7 40.4 72 0.1 32.3
05:05 1019 30.09 849 25.07 4.5 40.1 74 0.4 32.6
05:10 1019 30.09 849 25.07 4.1 39.4 75 0.2 32.3
05:15 1019 30.09 849 25.07 4.2 39.6 75 0.2 32.3
05:20 1020 30.12 849 25.07 4.5 40.2 74 0.3 32.6
05:25 1020 30.12 849 25.07 4.5 40.1 75 0.5 32.8
05:30 1020 30.12 849 25.07 4.2 39.6 77 0.5 32.9
05:35 1020 30.12 849 25.07 4.2 39.6 76 0.3 32.6
05:40 1020 30.12 849 25.07 4.4 40 75 0.4 32.8
05:45 1020 30.12 849 25.07 4.7 40.5 74 0.5 33
05:50 1020 30.12 849 25.07 4.7 40.5 75 0.6 33.1
05:55 1020 30.12 849 25.07 4.5 40.1 76 0.6 33.1
06:00 1019 30.09 849 25.07 4.4 39.9 75 0.4 32.7
06:05 1019 30.09 849 25.07 4.4 40 76 0.5 33
06:10 1020 30.12 849 25.07 4.5 40.1 75 0.4 32.7
06:15 1020 30.12 849 25.07 4.4 40 75 0.3 32.6
06:20 1020 30.12 849 25.07 4.6 40.3 75 0.6 33
06:25 1020 30.12 849 25.07 4.1 39.3 77 0.4 32.7
06:30 1020 30.12 849 25.07 4.1 39.4 74 -0.1 31.8
06:35 1020 30.12 849 25.07 5.2 41.4 70 0.1 32.2
06:40 1020 30.12 849 25.07 5.3 41.5 71 0.5 32.8
06:45 1020 30.12 849 25.07 5 40.9 72 0.2 32.4
06:50 1020 30.12 849 25.07 5 41 71 0.1 32.2
06:55 1020 30.12 849 25.07 5.2 41.4 71 0.4 32.7
07:00 1020 30.12 849 25.07 5.2 41.4 70 0.3 32.5
07:05 1020 30.12 849 25.07 5.2 41.4 71 0.3 32.6
07:10 1020 30.12 849 25.07 5.2 41.4 71 0.4 32.7
07:15 1020 30.12 849 25.07 5.5 41.9 70 0.4 32.7
07:20 1020 30.12 850 25.1 5.4 41.8 70 0.5 32.9
07:25 1020 30.12 850 25.1 5.2 41.3 71 0.4 32.7
07:30 1020 30.12 850 25.1 5 41.1 72 0.4 32.7
07:35 1021 30.15 850 25.1 4.9 40.9 73 0.4 32.8
07:40 1021 30.15 850 25.1 4.9 40.8 73 0.4 32.8
07:45 1021 30.15 850 25.1 4.9 40.7 73 0.3 32.6
07:50 1021 30.15 850 25.1 4.9 40.8 73 0.4 32.7
07:55 1021 30.15 850 25.1 4.8 40.6 73 0.5 32.8
08:00 1021 30.15 850 25.1 4.6 40.3 74 0.4 32.8
08:05 1021 30.15 850 25.1 4.4 40 75 0.4 32.7
08:10 1021 30.15 850 25.1 4.3 39.7 75 0.3 32.6
08:15 1021 30.15 850 25.1 4.3 39.7 75 0.2 32.4
08:20 1021 30.15 851 25.13 4.3 39.8 75 0.2 32.4
08:25 1021 30.15 851 25.13 4.4 39.9 75 0.3 32.5
08:30 1022 30.18 851 25.13 4.4 39.9 75 0.4 32.7
08:35 1022 30.18 851 25.13 4.4 39.9 75 0.4 32.7
08:40 1022 30.18 851 25.13 4.3 39.7 76 0.4 32.7
08:45 1022 30.18 851 25.13 4.2 39.5 76 0.4 32.7
08:50 1022 30.18 851 25.13 3.9 39.1 77 0.3 32.6
08:55 1022 30.18 851 25.13 3.8 38.9 78 0.4 32.6
09:00 1022 30.18 851 25.13 3.6 38.6 79 0.4 32.7
09:05 1022 30.18 851 25.13 3.4 38.2 79 0.2 32.4
09:10 1022 30.18 851 25.13 3.4 38.1 80 0.3 32.5
09:15 1022 30.18 851 25.13 3.5 38.3 79 0.2 32.4
09:20 1022 30.18 851 25.13 3.5 38.2 79 0.2 32.3
09:25 1022 30.18 851 25.13 3.5 38.2 79 0.2 32.3
09:30 1022 30.18 852 25.16 3.6 38.4 79 0.2 32.4
09:35 1022 30.18 852 25.16 3.6 38.6 78 0.2 32.3
09:40 1022 30.18 852 25.16 3.8 38.8 77 0.1 32.1
09:45 1022 30.18 852 25.16 3.9 39 77 0.2 32.3
09:50 1023 30.21 852 25.16 4 39.3 75 0.1 32.1
09:55 1023 30.21 852 25.16 4.3 39.7 74 0.1 32.2
10:00 1023 30.21 852 25.16 4.6 40.2 72 0 32.1
10:05 1023 30.21 852 25.16 5.2 41.3 71 0.4 32.7
10:10 1023 30.21 852 25.16 5.4 41.7 69 0.2 32.4
10:15 1023 30.21 852 25.16 5.5 41.8 69 0.3 32.6
10:20 1023 30.21 852 25.16 5.3 41.5 70 0.2 32.4
10:25 1023 30.21 852 25.16 5.1 41.1 71 0.2 32.4
10:30 1023 30.21 852 25.16 4.9 40.9 71 0.1 32.3
10:35 1023 30.21 853 25.19 5.4 41.7 67 -0.2 31.7
10:40 1023 30.21 853 25.19 6.1 42.9 67 0.3 32.6
10:45 1023 30.21 853 25.19 6 42.8 66 0.1 32.3
10:50 1023 30.21 853 25.19 5.9 42.7 67 0.3 32.5
10:55 1024 30.24 853 25.19 5.6 42.1 68 0.3 32.5
11:00 1024 30.24 853 25.19 5.8 42.5 66 -0.1 31.9
11:05 1024 30.24 853 25.19 6.5 43.6 62 -0.2 31.7
11:10 1024 30.24 853 25.19 7.1 44.7 59 -0.5 31.2
11:15 1024 30.24 853 25.19 7.3 45.2 54 -1.4 29.5
11:20 1024 30.24 853 25.19 7.2 45 55 -1.1 30
11:25 1024 30.24 853 25.19 6.7 44 54 -2 28.4
11:30 1024 30.24 853 25.19 6.3 43.4 53 -2.6 27.3
11:35 1024 30.24 853 25.19 6.7 44 52 -2.5 27.4
11:40 1024 30.24 853 25.19 6.9 44.5 52 -2.2 28
11:45 1024 30.24 853 25.19 7.2 44.9 52 -2.1 28.3
11:50 1024 30.24 853 25.19 6.8 44.3 53 -2.2 28.1
11:55 1024 30.24 853 25.19 6.8 44.2 53 -2.2 28
12:00 1024 30.24 853 25.19 6.9 44.5 52 -2.2 28.1
12:05 1024 30.24 854 25.22 6.8 44.2 52 -2.3 27.9
12:10 1024 30.24 853 25.19 6.6 43.9 52 -2.5 27.6
12:15 1024 30.24 853 25.19 6.6 43.8 50 -3 26.6
12:20 1024 30.24 853 25.19 7.3 45.1 48 -2.9 26.8
12:25 1024 30.24 853 25.19 7.3 45.2 48 -2.9 26.8
12:30 1024 30.24 853 25.19 7.4 45.2 48 -3 26.7
12:35 1024 30.24 853 25.19 7.8 46 45 -3.3 26.1
12:40 1024 30.24 853 25.19 8.3 46.9 44 -3.4 25.9
12:45 1024 30.24 853 25.19 8.5 47.4 42 -3.5 25.7
12:50 1024 30.24 853 25.19 8.5 47.3 42 -3.6 25.5
12:55 1024 30.24 853 25.19 8.3 46.9 42 -3.7 25.3
13:00 1024 30.24 853 25.19 8.5 47.4 41 -4 24.8
13:05 1024 30.24 853 25.19 8.6 47.4 41 -4 24.8
13:10 1024 30.24 853 25.19 8.9 48 40 -3.9 25
13:15 1024 30.24 853 25.19 9 48.2 39 -4.2 24.5
13:20 1024 30.24 853 25.19 9.2 48.5 39 -4.2 24.5
13:25 1024 30.24 853 25.19 9.4 49 39 -3.8 25.1
13:30 1024 30.24 853 25.19 9.3 48.7 39 -4.1 24.6
13:35 1024 30.24 853 25.19 9.8 49.7 37 -4.1 24.5
13:40 1024 30.24 853 25.19 10 50 37 -3.9 25.1
13:45 1024 30.24 853 25.19 9.9 49.9 36 -4.3 24.3
13:50 1024 30.24 853 25.19 10.3 50.5 36 -4 24.7
13:55 1024 30.24 853 25.19 9 48.3 40 -3.9 25
14:00 1024 30.24 853 25.19 8.8 47.9 39 -4.4 24.1
14:05 1024 30.24 853 25.19 8.3 46.9 42 -4 24.8
14:10 1024 30.24 853 25.19 7.3 45.2 44 -4.2 24.5
14:15 1024 30.24 853 25.19 7.9 46.3 41 -4.4 24.1
14:20 1024 30.24 853 25.19 8 46.4 41 -4.4 24.2
14:25 1024 30.24 853 25.19 8.1 46.5 41 -4.4 24.1
14:30 1024 30.24 853 25.19 8 46.5 42 -4.2 24.4
14:35 1024 30.24 853 25.19 7.8 46.1 43 -4 24.8
14:40 1024 30.24 853 25.19 7.8 46 41 -4.6 23.8
14:45 1024 30.24 853 25.19 8 46.4 41 -4.4 24
14:50 1024 30.24 853 25.19 8.6 47.5 39 -4.4 24.1
14:55 1024 30.24 853 25.19 8.4 47.1 39 -4.7 23.5
15:00 1024 30.24 853 25.19 8.8 47.9 39 -4.4 24
15:05 1024 30.24 853 25.19 8.6 47.5 39 -4.4 24.1
15:10 1024 30.24 853 25.19 8.2 46.7 41 -4.2 24.5
15:15 1024 30.24 854 25.22 8.3 47 39 -4.9 23.2
15:20 1024 30.24 854 25.22 9 48.2 38 -4.7 23.5
15:25 1024 30.24 853 25.19 9.5 49 37 -4.6 23.7
15:30 1024 30.24 853 25.19 9.7 49.4 36 -4.5 23.8
15:35 1024 30.24 854 25.22 9.8 49.6 36 -4.6 23.7
15:40 1024 30.24 854 25.22 9.5 49.1 36 -4.7 23.6
15:45 1024 30.24 854 25.22 9.8 49.6 36 -4.4 24
15:50 1024 30.24 854 25.22 9.6 49.3 38 -4 24.7
15:55 1024 30.24 854 25.22 8.5 47.4 39 -4.6 23.7
16:00 1024 30.24 854 25.22 8.8 47.9 38 -4.6 23.7
16:05 1025 30.27 854 25.22 9 48.2 37 -4.8 23.3
16:10 1025 30.27 854 25.22 9.4 48.8 38 -4.1 24.6
16:15 1025 30.27 854 25.22 8.5 47.3 40 -4.3 24.3
16:20 1025 30.27 854 25.22 8.3 47 39 -4.7 23.5
16:25 1025 30.27 854 25.22 9.1 48.3 37 -4.8 23.4
16:30 1025 30.27 854 25.22 9 48.2 38 -4.7 23.6
16:35 1025 30.27 854 25.22 8.3 47 40 -4.6 23.7
16:40 1025 30.27 854 25.22 8.6 47.5 38 -4.9 23.3
16:45 1025 30.27 854 25.22 9.3 48.7 36 -5 23
16:50 1025 30.27 854 25.22 9.4 48.8 35 -5.3 22.5
16:55 1025 30.27 854 25.22 8.9 47.9 38 -4.6 23.8
17:00 1025 30.27 854 25.22 7.5 45.4 42 -4.6 23.6
17:05 1025 30.27 854 25.22 7.2 45 42 -5 23.1
17:10 1025 30.27 854 25.22 7.6 45.6 41 -4.9 23.2
17:15 1025 30.27 854 25.22 7.5 45.4 42 -4.6 23.6
17:20 1025 30.27 854 25.22 7.5 45.4 41 -5 22.9
17:25 1025 30.27 854 25.22 7.4 45.4 42 -4.7 23.5
17:30 1025 30.27 854 25.22 7.4 45.3 41 -4.9 23.3
17:35 1025 30.27 854 25.22 7.3 45.2 41 -5.1 22.9
17:40 1025 30.27 854 25.22 7.3 45.2 42 -4.9 23.3
17:45 1025 30.27 855 25.25 7.3 45.2 43 -4.5 23.9
17:50 1026 30.3 855 25.25 7 44.5 45 -4 24.8
17:55 1026 30.3 855 25.25 6.5 43.6 45 -4.6 23.6
18:00 1026 30.3 855 25.25 6.3 43.4 45 -4.7 23.5
18:05 1026 30.3 855 25.25 6.1 43 46 -4.6 23.7
18:10 1026 30.3 855 25.25 6 42.9 46 -4.6 23.7
18:15 1026 30.3 855 25.25 6.1 42.9 46 -4.8 23.3
18:20 1026 30.3 855 25.25 5.8 42.4 47 -4.6 23.8
18:25 1026 30.3 855 25.25 5.7 42.3 48 -4.5 23.9
18:30 1026 30.3 855 25.25 5.7 42.3 47 -4.6 23.7
18:35 1026 30.3 855 25.25 5.6 42.2 48 -4.6 23.8
18:40 1026 30.3 855 25.25 5.5 41.9 48 -4.7 23.6
18:45 1026 30.3 855 25.25 5.3 41.6 48 -4.7 23.5
18:50 1026 30.3 855 25.25 5.2 41.4 48 -4.8 23.3
18:55 1026 30.3 855 25.25 5.1 41.2 48 -4.9 23.1
19:00 1026 30.3 855 25.25 5 41 49 -4.9 23.2
19:05 1026 30.3 856 25.28 5 40.9 49 -4.9 23.2
19:10 1026 30.3 856 25.28 4.9 40.8 49 -4.9 23.3
19:15 1026 30.3 856 25.28 4.7 40.5 50 -4.9 23.3
19:20 1027 30.33 856 25.28 4.5 40.1 51 -4.8 23.3
19:25 1027 30.33 856 25.28 4.3 39.7 54 -4.3 24.3
19:30 1027 30.33 856 25.28 4 39.2 54 -4.5 23.9
19:35 1027 30.33 856 25.28 3.7 38.6 56 -4.3 24.2
19:40 1027 30.33 856 25.28 3.4 38.1 56 -4.5 23.9
19:45 1027 30.33 856 25.28 3.4 38.2 56 -4.5 24
19:50 1027 30.33 856 25.28 3.5 38.2 59 -3.9 25
19:55 1027 30.33 856 25.28 2 35.6 67 -3.4 25.8
20:00 1027 30.33 856 25.28 1.1 34 68 -4.2 24.5
20:05 1027 30.33 856 25.28 1.3 34.4 65 -4.5 24
20:10 1027 30.33 856 25.28 1.6 35 63 -4.6 23.7
20:15 1027 30.33 856 25.28 2.3 36.1 59 -5 23
20:20 1027 30.33 856 25.28 2.8 37.1 58 -4.7 23.5
20:25 1027 30.33 856 25.28 2.7 36.9 58 -4.7 23.5
20:30 1027 30.33 856 25.28 2.7 36.8 60 -4.3 24.2
20:35 1027 30.33 857 25.31 2.6 36.7 60 -4.5 23.9
20:40 1027 30.33 857 25.31 2.5 36.4 60 -4.5 23.9
20:45 1027 30.33 857 25.31 2.3 36.2 61 -4.5 23.9
20:50 1028 30.36 857 25.31 2.4 36.4 60 -4.5 23.9
20:55 1028 30.36 857 25.31 2.5 36.5 59 -4.7 23.6
21:00 1028 30.36 857 25.31 2.6 36.7 61 -4.1 24.6
21:05 1028 30.36 857 25.31 2.1 35.8 62 -4.4 24
21:10 1028 30.36 857 25.31 1.9 35.4 63 -4.4 24.1
21:15 1028 30.36 857 25.31 1.7 35.1 63 -4.7 23.6
21:20 1028 30.36 857 25.31 1.8 35.3 63 -4.5 24
21:25 1028 30.36 857 25.31 1.8 35.2 64 -4.4 24
21:30 1028 30.36 857 25.31 1.8 35.3 62 -4.7 23.6
21:35 1028 30.36 857 25.31 2 35.7 60 -4.8 23.3
21:40 1028 30.36 857 25.31 2.4 36.4 59 -4.7 23.5
21:45 1028 30.36 857 25.31 2.3 36.1 60 -4.6 23.7
21:50 1028 30.36 857 25.31 2.2 36 60 -4.7 23.6
21:55 1028 30.36 857 25.31 2.1 35.8 61 -4.7 23.6
22:00 1028 30.36 857 25.31 2.3 36.2 59 -4.9 23.2
22:05 1028 30.36 858 25.34 2.4 36.3 60 -4.6 23.7
22:10 1028 30.36 858 25.34 2.3 36.2 60 -4.6 23.7
22:15 1028 30.36 858 25.34 2.1 35.8 61 -4.6 23.8
22:20 1028 30.36 858 25.34 1.9 35.4 63 -4.5 23.9
22:25 1029 30.39 858 25.34 1.8 35.3 61 -4.9 23.1
22:30 1029 30.39 858 25.34 1.9 35.3 63 -4.5 23.9
22:35 1028 30.36 858 25.34 1.8 35.2 61 -5 23
22:40 1029 30.39 858 25.34 1.9 35.5 63 -4.5 24
22:45 1028 30.36 858 25.34 1.6 34.9 64 -4.5 23.9
22:50 1028 30.36 858 25.34 1.6 34.8 61 -5.2 22.7
22:55 1028 30.36 858 25.34 2 35.5 61 -4.8 23.4
23:00 1029 30.39 858 25.34 1.7 35.1 64 -4.4 24.2
23:05 1029 30.39 858 25.34 1.4 34.5 62 -5 22.9
23:10 1029 30.39 858 25.34 1.7 35.1 60 -5.3 22.5
23:15 1029 30.39 858 25.34 2 35.6 60 -5 22.9
23:20 1029 30.39 858 25.34 1.6 34.9 63 -4.6 23.8
23:25 1029 30.39 858 25.34 1.2 34.2 64 -4.8 23.3
23:30 1029 30.39 858 25.34 1.1 33.9 65 -4.7 23.5
23:35 1029 30.39 858 25.34 1 33.7 65 -5 23.1
23:40 1029 30.39 858 25.34 1 33.7 65 -5 23
23:45 1029 30.39 858 25.34 1.1 34 63 -5.2 22.7
23:50 1029 30.39 858 25.34 1.5 34.6 60 -5.4 22.3
23:55 1029 30.39 858 25.34 1.6 34.8 59 -5.5 22.1
24:00 1029 30.39 858 25.34 1.6 34.9 61 -5.2 22.7